sensor_id;sensor_type;location;lat;lon;timestamp;P1;durP1;ratioP1;P2;durP2;ratioP2
31091;SDS011;17747;51.070;10.930;2023-02-07T00:00:59;1.43;;;0.70;;
31091;SDS011;17747;51.070;10.930;2023-02-07T00:02:29;3.50;;;0.80;;
31091;SDS011;17747;51.070;10.930;2023-02-07T00:04:01;1.47;;;0.60;;
31091;SDS011;17747;51.070;10.930;2023-02-07T00:05:33;0.50;;;0.50;;
31091;SDS011;17747;51.070;10.930;2023-02-07T00:07:05;1.42;;;0.50;;
31091;SDS011;17747;51.070;10.930;2023-02-07T00:08:38;0.50;;;0.50;;
31091;SDS011;17747;51.070;10.930;2023-02-07T00:10:11;1.25;;;0.55;;
31091;SDS011;17747;51.070;10.930;2023-02-07T00:11:42;0.80;;;0.80;;
31091;SDS011;17747;51.070;10.930;2023-02-07T00:13:14;0.60;;;0.60;;
31091;SDS011;17747;51.070;10.930;2023-02-07T00:14:46;0.67;;;0.67;;
31091;SDS011;17747;51.070;10.930;2023-02-07T00:16:18;0.50;;;0.50;;
31091;SDS011;17747;51.070;10.930;2023-02-07T00:17:50;0.50;;;0.40;;
31091;SDS011;17747;51.070;10.930;2023-02-07T00:19:20;0.60;;;0.60;;
31091;SDS011;17747;51.070;10.930;2023-02-07T00:20:56;0.53;;;0.53;;
31091;SDS011;17747;51.070;10.930;2023-02-07T00:22:27;1.08;;;0.63;;
31091;SDS011;17747;51.070;10.930;2023-02-07T00:24:00;1.63;;;0.80;;
31091;SDS011;17747;51.070;10.930;2023-02-07T00:25:32;0.70;;;0.70;;
31091;SDS011;17747;51.070;10.930;2023-02-07T00:27:04;2.58;;;0.95;;
31091;SDS011;17747;51.070;10.930;2023-02-07T00:28:34;0.43;;;0.43;;
31091;SDS011;17747;51.070;10.930;2023-02-07T00:30:06;4.07;;;0.70;;
31091;SDS011;17747;51.070;10.930;2023-02-07T00:31:38;0.67;;;0.47;;
31091;SDS011;17747;51.070;10.930;2023-02-07T00:33:09;1.55;;;0.68;;
31091;SDS011;17747;51.070;10.930;2023-02-07T00:34:41;0.70;;;0.70;;
31091;SDS011;17747;51.070;10.930;2023-02-07T00:36:13;0.47;;;0.47;;
31091;SDS011;17747;51.070;10.930;2023-02-07T00:37:47;2.47;;;0.70;;
31091;SDS011;17747;51.070;10.930;2023-02-07T00:39:21;0.52;;;0.40;;
31091;SDS011;17747;51.070;10.930;2023-02-07T00:40:52;0.30;;;0.30;;
31091;SDS011;17747;51.070;10.930;2023-02-07T00:42:24;0.40;;;0.40;;
31091;SDS011;17747;51.070;10.930;2023-02-07T00:43:56;1.37;;;0.53;;
31091;SDS011;17747;51.070;10.930;2023-02-07T00:45:27;1.17;;;0.70;;
31091;SDS011;17747;51.070;10.930;2023-02-07T00:46:59;1.50;;;0.60;;
31091;SDS011;17747;51.070;10.930;2023-02-07T00:48:30;0.30;;;0.30;;
31091;SDS011;17747;51.070;10.930;2023-02-07T00:50:03;1.25;;;0.50;;
31091;SDS011;17747;51.070;10.930;2023-02-07T00:51:35;0.40;;;0.37;;
31091;SDS011;17747;51.070;10.930;2023-02-07T00:53:07;1.43;;;0.70;;
31091;SDS011;17747;51.070;10.930;2023-02-07T00:54:40;0.70;;;0.70;;
31091;SDS011;17747;51.070;10.930;2023-02-07T00:56:12;0.50;;;0.50;;
31091;SDS011;17747;51.070;10.930;2023-02-07T00:57:44;1.37;;;0.67;;
31091;SDS011;17747;51.070;10.930;2023-02-07T00:59:14;0.52;;;0.52;;
31091;SDS011;17747;51.070;10.930;2023-02-07T01:00:46;0.60;;;0.60;;
31091;SDS011;17747;51.070;10.930;2023-02-07T01:02:17;0.43;;;0.40;;
31091;SDS011;17747;51.070;10.930;2023-02-07T01:03:49;0.50;;;0.50;;
31091;SDS011;17747;51.070;10.930;2023-02-07T01:05:20;2.27;;;0.50;;
31091;SDS011;17747;51.070;10.930;2023-02-07T01:06:52;0.30;;;0.30;;
31091;SDS011;17747;51.070;10.930;2023-02-07T01:08:24;0.40;;;0.40;;
31091;SDS011;17747;51.070;10.930;2023-02-07T01:09:56;1.08;;;0.57;;
31091;SDS011;17747;51.070;10.930;2023-02-07T01:11:27;0.47;;;0.47;;
31091;SDS011;17747;51.070;10.930;2023-02-07T01:13:00;2.60;;;0.70;;
31091;SDS011;17747;51.070;10.930;2023-02-07T01:14:31;0.52;;;0.50;;
31091;SDS011;17747;51.070;10.930;2023-02-07T01:16:03;1.25;;;0.77;;
31091;SDS011;17747;51.070;10.930;2023-02-07T01:17:35;0.70;;;0.70;;
31091;SDS011;17747;51.070;10.930;2023-02-07T01:19:08;1.53;;;0.70;;
31091;SDS011;17747;51.070;10.930;2023-02-07T01:20:40;0.60;;;0.60;;
31091;SDS011;17747;51.070;10.930;2023-02-07T01:22:11;0.57;;;0.53;;
31091;SDS011;17747;51.070;10.930;2023-02-07T01:23:43;0.20;;;0.20;;
31091;SDS011;17747;51.070;10.930;2023-02-07T01:25:16;0.30;;;0.30;;
31091;SDS011;17747;51.070;10.930;2023-02-07T01:26:47;0.43;;;0.40;;
31091;SDS011;17747;51.070;10.930;2023-02-07T01:28:19;0.47;;;0.30;;
31091;SDS011;17747;51.070;10.930;2023-02-07T01:29:50;0.53;;;0.47;;
31091;SDS011;17747;51.070;10.930;2023-02-07T01:31:21;0.63;;;0.63;;
31091;SDS011;17747;51.070;10.930;2023-02-07T01:32:53;2.20;;;0.60;;
31091;SDS011;17747;51.070;10.930;2023-02-07T01:34:25;0.97;;;0.40;;
31091;SDS011;17747;51.070;10.930;2023-02-07T01:35:57;1.40;;;0.60;;
31091;SDS011;17747;51.070;10.930;2023-02-07T01:37:28;1.07;;;1.00;;
31091;SDS011;17747;51.070;10.930;2023-02-07T01:39:00;1.70;;;1.03;;
31091;SDS011;17747;51.070;10.930;2023-02-07T01:40:36;0.47;;;0.40;;
31091;SDS011;17747;51.070;10.930;2023-02-07T01:42:09;0.38;;;0.38;;
31091;SDS011;17747;51.070;10.930;2023-02-07T01:43:57;0.40;;;0.40;;
31091;SDS011;17747;51.070;10.930;2023-02-07T01:45:32;0.50;;;0.40;;
31091;SDS011;17747;51.070;10.930;2023-02-07T01:47:05;1.35;;;0.40;;
31091;SDS011;17747;51.070;10.930;2023-02-07T01:48:39;0.45;;;0.30;;
31091;SDS011;17747;51.070;10.930;2023-02-07T01:50:10;2.30;;;0.38;;
31091;SDS011;17747;51.070;10.930;2023-02-07T01:51:43;0.47;;;0.30;;
31091;SDS011;17747;51.070;10.930;2023-02-07T01:53:31;0.47;;;0.40;;
31091;SDS011;17747;51.070;10.930;2023-02-07T01:55:06;1.35;;;0.45;;
31091;SDS011;17747;51.070;10.930;2023-02-07T01:56:43;0.40;;;0.40;;
31091;SDS011;17747;51.070;10.930;2023-02-07T01:58:17;0.43;;;0.40;;
31091;SDS011;17747;51.070;10.930;2023-02-07T01:59:49;0.47;;;0.40;;
31091;SDS011;17747;51.070;10.930;2023-02-07T02:01:23;1.43;;;0.50;;
31091;SDS011;17747;51.070;10.930;2023-02-07T02:02:56;1.30;;;0.40;;
31091;SDS011;17747;51.070;10.930;2023-02-07T02:04:28;0.47;;;0.47;;
31091;SDS011;17747;51.070;10.930;2023-02-07T02:06:00;2.50;;;0.63;;
31091;SDS011;17747;51.070;10.930;2023-02-07T02:07:32;2.03;;;1.27;;
31091;SDS011;17747;51.070;10.930;2023-02-07T02:09:06;3.28;;;3.00;;
31091;SDS011;17747;51.070;10.930;2023-02-07T02:10:45;0.80;;;0.80;;
31091;SDS011;17747;51.070;10.930;2023-02-07T02:12:52;0.50;;;0.50;;
31091;SDS011;17747;51.070;10.930;2023-02-07T02:14:34;0.37;;;0.20;;
31091;SDS011;17747;51.070;10.930;2023-02-07T02:16:24;0.47;;;0.30;;
31091;SDS011;17747;51.070;10.930;2023-02-07T02:18:10;1.23;;;0.40;;
31091;SDS011;17747;51.070;10.930;2023-02-07T02:22:39;0.43;;;0.40;;
31091;SDS011;17747;51.070;10.930;2023-02-07T02:24:34;0.47;;;0.47;;
31091;SDS011;17747;51.070;10.930;2023-02-07T02:28:35;1.27;;;0.40;;
31091;SDS011;17747;51.070;10.930;2023-02-07T02:30:40;0.37;;;0.27;;
31091;SDS011;17747;51.070;10.930;2023-02-07T02:32:45;0.10;;;0.10;;
31091;SDS011;17747;51.070;10.930;2023-02-07T02:34:36;0.30;;;0.30;;
31091;SDS011;17747;51.070;10.930;2023-02-07T02:36:17;0.43;;;0.30;;
31091;SDS011;17747;51.070;10.930;2023-02-07T02:37:54;1.00;;;0.33;;
31091;SDS011;17747;51.070;10.930;2023-02-07T02:39:32;0.47;;;0.30;;
31091;SDS011;17747;51.070;10.930;2023-02-07T02:41:11;0.50;;;0.50;;
31091;SDS011;17747;51.070;10.930;2023-02-07T02:42:49;0.33;;;0.33;;
31091;SDS011;17747;51.070;10.930;2023-02-07T02:44:28;0.20;;;0.20;;
31091;SDS011;17747;51.070;10.930;2023-02-07T02:46:04;1.40;;;0.47;;
31091;SDS011;17747;51.070;10.930;2023-02-07T02:47:40;1.33;;;0.37;;
31091;SDS011;17747;51.070;10.930;2023-02-07T02:49:17;0.30;;;0.30;;
31091;SDS011;17747;51.070;10.930;2023-02-07T02:50:49;1.43;;;0.60;;
31091;SDS011;17747;51.070;10.930;2023-02-07T02:52:23;0.47;;;0.30;;
31091;SDS011;17747;51.070;10.930;2023-02-07T02:53:56;1.17;;;0.40;;
31091;SDS011;17747;51.070;10.930;2023-02-07T02:55:38;2.40;;;0.53;;
31091;SDS011;17747;51.070;10.930;2023-02-07T02:57:34;0.47;;;0.30;;
31091;SDS011;17747;51.070;10.930;2023-02-07T02:59:28;0.43;;;0.30;;
31091;SDS011;17747;51.070;10.930;2023-02-07T03:01:21;0.37;;;0.20;;
31091;SDS011;17747;51.070;10.930;2023-02-07T03:03:01;1.27;;;0.33;;
31091;SDS011;17747;51.070;10.930;2023-02-07T03:05:00;0.47;;;0.30;;
31091;SDS011;17747;51.070;10.930;2023-02-07T03:06:47;0.50;;;0.40;;
31091;SDS011;17747;51.070;10.930;2023-02-07T03:08:32;1.50;;;0.33;;
31091;SDS011;17747;51.070;10.930;2023-02-07T03:10:12;3.93;;;0.50;;
31091;SDS011;17747;51.070;10.930;2023-02-07T03:11:50;0.43;;;0.20;;
31091;SDS011;17747;51.070;10.930;2023-02-07T03:13:28;1.33;;;0.40;;
31091;SDS011;17747;51.070;10.930;2023-02-07T03:15:05;1.97;;;0.47;;
31091;SDS011;17747;51.070;10.930;2023-02-07T03:16:49;0.10;;;0.10;;
31091;SDS011;17747;51.070;10.930;2023-02-07T03:18:30;0.38;;;0.25;;
31091;SDS011;17747;51.070;10.930;2023-02-07T03:20:13;2.43;;;0.40;;
31091;SDS011;17747;51.070;10.930;2023-02-07T03:21:51;0.43;;;0.30;;
31091;SDS011;17747;51.070;10.930;2023-02-07T03:23:25;2.17;;;0.40;;
31091;SDS011;17747;51.070;10.930;2023-02-07T03:24:59;1.40;;;0.47;;
31091;SDS011;17747;51.070;10.930;2023-02-07T03:26:33;1.43;;;0.47;;
31091;SDS011;17747;51.070;10.930;2023-02-07T03:28:06;2.17;;;0.43;;
31091;SDS011;17747;51.070;10.930;2023-02-07T03:29:41;0.43;;;0.40;;
31091;SDS011;17747;51.070;10.930;2023-02-07T03:31:16;0.30;;;0.30;;
31091;SDS011;17747;51.070;10.930;2023-02-07T03:32:54;1.80;;;0.55;;
31091;SDS011;17747;51.070;10.930;2023-02-07T03:34:30;0.25;;;0.25;;
31091;SDS011;17747;51.070;10.930;2023-02-07T03:36:09;2.10;;;0.40;;
31091;SDS011;17747;51.070;10.930;2023-02-07T03:37:49;0.57;;;0.57;;
31091;SDS011;17747;51.070;10.930;2023-02-07T03:39:23;0.53;;;0.50;;
31091;SDS011;17747;51.070;10.930;2023-02-07T03:40:57;1.20;;;0.70;;
31091;SDS011;17747;51.070;10.930;2023-02-07T03:42:32;0.53;;;0.50;;
31091;SDS011;17747;51.070;10.930;2023-02-07T03:44:07;0.40;;;0.40;;
31091;SDS011;17747;51.070;10.930;2023-02-07T03:45:42;0.47;;;0.40;;
31091;SDS011;17747;51.070;10.930;2023-02-07T03:47:15;0.97;;;0.40;;
31091;SDS011;17747;51.070;10.930;2023-02-07T03:48:47;0.30;;;0.30;;
31091;SDS011;17747;51.070;10.930;2023-02-07T03:50:19;0.37;;;0.37;;
31091;SDS011;17747;51.070;10.930;2023-02-07T03:51:52;0.43;;;0.40;;
31091;SDS011;17747;51.070;10.930;2023-02-07T03:53:23;0.40;;;0.33;;
31091;SDS011;17747;51.070;10.930;2023-02-07T03:54:56;0.30;;;0.30;;
31091;SDS011;17747;51.070;10.930;2023-02-07T03:56:26;0.30;;;0.30;;
31091;SDS011;17747;51.070;10.930;2023-02-07T03:57:58;1.30;;;0.50;;
31091;SDS011;17747;51.070;10.930;2023-02-07T03:59:30;0.47;;;0.30;;
31091;SDS011;17747;51.070;10.930;2023-02-07T04:01:01;1.40;;;0.50;;
31091;SDS011;17747;51.070;10.930;2023-02-07T04:02:33;0.40;;;0.40;;
31091;SDS011;17747;51.070;10.930;2023-02-07T04:04:04;4.40;;;0.83;;
31091;SDS011;17747;51.070;10.930;2023-02-07T04:05:36;0.30;;;0.30;;
31091;SDS011;17747;51.070;10.930;2023-02-07T04:07:09;1.33;;;0.60;;
31091;SDS011;17747;51.070;10.930;2023-02-07T04:08:41;2.23;;;0.53;;
31091;SDS011;17747;51.070;10.930;2023-02-07T04:10:13;0.30;;;0.30;;
31091;SDS011;17747;51.070;10.930;2023-02-07T04:11:47;0.40;;;0.40;;
31091;SDS011;17747;51.070;10.930;2023-02-07T04:13:19;0.97;;;0.40;;
31091;SDS011;17747;51.070;10.930;2023-02-07T04:14:50;2.30;;;0.50;;
31091;SDS011;17747;51.070;10.930;2023-02-07T04:16:22;2.53;;;0.50;;
31091;SDS011;17747;51.070;10.930;2023-02-07T04:17:53;0.87;;;0.57;;
31091;SDS011;17747;51.070;10.930;2023-02-07T04:19:25;0.47;;;0.33;;
31091;SDS011;17747;51.070;10.930;2023-02-07T04:20:59;2.08;;;0.43;;
31091;SDS011;17747;51.070;10.930;2023-02-07T04:22:33;0.73;;;0.30;;
31091;SDS011;17747;51.070;10.930;2023-02-07T04:24:05;3.10;;;0.60;;
31091;SDS011;17747;51.070;10.930;2023-02-07T04:25:37;0.37;;;0.37;;
31091;SDS011;17747;51.070;10.930;2023-02-07T04:27:08;1.23;;;0.30;;
31091;SDS011;17747;51.070;10.930;2023-02-07T04:28:40;0.43;;;0.20;;
31091;SDS011;17747;51.070;10.930;2023-02-07T04:30:11;2.47;;;0.40;;
31091;SDS011;17747;51.070;10.930;2023-02-07T04:31:43;1.20;;;0.40;;
31091;SDS011;17747;51.070;10.930;2023-02-07T04:33:15;0.43;;;0.30;;
31091;SDS011;17747;51.070;10.930;2023-02-07T04:34:45;0.23;;;0.23;;
31091;SDS011;17747;51.070;10.930;2023-02-07T04:36:17;0.40;;;0.20;;
31091;SDS011;17747;51.070;10.930;2023-02-07T04:37:50;0.40;;;0.37;;
31091;SDS011;17747;51.070;10.930;2023-02-07T04:39:22;0.50;;;0.50;;
31091;SDS011;17747;51.070;10.930;2023-02-07T04:40:56;0.90;;;0.73;;
31091;SDS011;17747;51.070;10.930;2023-02-07T04:42:29;0.40;;;0.40;;
31091;SDS011;17747;51.070;10.930;2023-02-07T04:43:59;1.93;;;0.50;;
31091;SDS011;17747;51.070;10.930;2023-02-07T04:45:31;0.47;;;0.33;;
31091;SDS011;17747;51.070;10.930;2023-02-07T04:47:02;1.50;;;0.50;;
31091;SDS011;17747;51.070;10.930;2023-02-07T04:48:35;0.50;;;0.50;;
31091;SDS011;17747;51.070;10.930;2023-02-07T04:50:07;3.27;;;0.83;;
31091;SDS011;17747;51.070;10.930;2023-02-07T04:51:39;1.57;;;0.83;;
31091;SDS011;17747;51.070;10.930;2023-02-07T04:53:11;1.33;;;0.43;;
31091;SDS011;17747;51.070;10.930;2023-02-07T04:54:43;0.47;;;0.40;;
31091;SDS011;17747;51.070;10.930;2023-02-07T04:56:15;0.43;;;0.30;;
31091;SDS011;17747;51.070;10.930;2023-02-07T04:57:46;0.30;;;0.30;;
31091;SDS011;17747;51.070;10.930;2023-02-07T04:59:18;0.10;;;0.10;;
31091;SDS011;17747;51.070;10.930;2023-02-07T05:00:51;0.27;;;0.27;;
31091;SDS011;17747;51.070;10.930;2023-02-07T05:02:23;0.43;;;0.40;;
31091;SDS011;17747;51.070;10.930;2023-02-07T05:03:54;1.90;;;0.47;;
31091;SDS011;17747;51.070;10.930;2023-02-07T05:05:26;0.20;;;0.20;;
31091;SDS011;17747;51.070;10.930;2023-02-07T05:06:57;1.17;;;0.30;;
31091;SDS011;17747;51.070;10.930;2023-02-07T05:08:30;0.33;;;0.20;;
31091;SDS011;17747;51.070;10.930;2023-02-07T05:10:03;3.27;;;0.50;;
31091;SDS011;17747;51.070;10.930;2023-02-07T05:11:35;0.30;;;0.30;;
31091;SDS011;17747;51.070;10.930;2023-02-07T05:13:07;1.13;;;0.30;;
31091;SDS011;17747;51.070;10.930;2023-02-07T05:14:39;0.33;;;0.30;;
31091;SDS011;17747;51.070;10.930;2023-02-07T05:16:10;0.10;;;0.10;;
31091;SDS011;17747;51.070;10.930;2023-02-07T05:17:42;4.17;;;0.70;;
31091;SDS011;17747;51.070;10.930;2023-02-07T05:19:12;2.03;;;0.47;;
31091;SDS011;17747;51.070;10.930;2023-02-07T05:20:44;0.40;;;0.30;;
31091;SDS011;17747;51.070;10.930;2023-02-07T05:22:16;0.30;;;0.30;;
31091;SDS011;17747;51.070;10.930;2023-02-07T05:23:49;0.30;;;0.30;;
31091;SDS011;17747;51.070;10.930;2023-02-07T05:25:19;0.33;;;0.27;;
31091;SDS011;17747;51.070;10.930;2023-02-07T05:26:51;0.93;;;0.20;;
31091;SDS011;17747;51.070;10.930;2023-02-07T05:28:23;1.93;;;0.33;;
31091;SDS011;17747;51.070;10.930;2023-02-07T05:29:54;1.00;;;0.37;;
31091;SDS011;17747;51.070;10.930;2023-02-07T05:31:28;0.30;;;0.30;;
31091;SDS011;17747;51.070;10.930;2023-02-07T05:33:13;1.03;;;0.60;;
31091;SDS011;17747;51.070;10.930;2023-02-07T05:34:45;0.43;;;0.30;;
31091;SDS011;17747;51.070;10.930;2023-02-07T05:36:16;0.30;;;0.30;;
31091;SDS011;17747;51.070;10.930;2023-02-07T05:37:47;0.30;;;0.30;;
31091;SDS011;17747;51.070;10.930;2023-02-07T05:39:20;0.87;;;0.20;;
31091;SDS011;17747;51.070;10.930;2023-02-07T05:40:52;0.17;;;0.17;;
31091;SDS011;17747;51.070;10.930;2023-02-07T05:42:23;0.43;;;0.40;;
31091;SDS011;17747;51.070;10.930;2023-02-07T05:43:55;35.10;;;3.37;;
31091;SDS011;17747;51.070;10.930;2023-02-07T05:45:27;0.53;;;0.33;;
31091;SDS011;17747;51.070;10.930;2023-02-07T05:46:58;11.03;;;1.13;;
31091;SDS011;17747;51.070;10.930;2023-02-07T05:48:30;2.53;;;0.40;;
31091;SDS011;17747;51.070;10.930;2023-02-07T05:50:02;3.30;;;0.60;;
31091;SDS011;17747;51.070;10.930;2023-02-07T05:51:33;0.33;;;0.30;;
31091;SDS011;17747;51.070;10.930;2023-02-07T05:53:05;1.27;;;0.43;;
31091;SDS011;17747;51.070;10.930;2023-02-07T05:54:39;0.33;;;0.20;;
31091;SDS011;17747;51.070;10.930;2023-02-07T05:56:10;0.77;;;0.33;;
31091;SDS011;17747;51.070;10.930;2023-02-07T05:57:42;0.47;;;0.40;;
31091;SDS011;17747;51.070;10.930;2023-02-07T05:59:14;2.33;;;0.50;;
31091;SDS011;17747;51.070;10.930;2023-02-07T06:00:46;0.20;;;0.20;;
31091;SDS011;17747;51.070;10.930;2023-02-07T06:02:18;0.30;;;0.30;;
31091;SDS011;17747;51.070;10.930;2023-02-07T06:03:49;1.27;;;0.30;;
31091;SDS011;17747;51.070;10.930;2023-02-07T06:05:21;0.37;;;0.27;;
31091;SDS011;17747;51.070;10.930;2023-02-07T06:06:53;0.77;;;0.33;;
31091;SDS011;17747;51.070;10.930;2023-02-07T06:08:24;0.30;;;0.20;;
31091;SDS011;17747;51.070;10.930;2023-02-07T06:09:57;1.17;;;0.30;;
31091;SDS011;17747;51.070;10.930;2023-02-07T06:11:29;2.83;;;0.50;;
31091;SDS011;17747;51.070;10.930;2023-02-07T06:13:00;0.87;;;0.20;;
31091;SDS011;17747;51.070;10.930;2023-02-07T06:14:32;0.40;;;0.30;;
31091;SDS011;17747;51.070;10.930;2023-02-07T06:16:04;1.40;;;0.53;;
31091;SDS011;17747;51.070;10.930;2023-02-07T06:17:36;0.43;;;0.30;;
31091;SDS011;17747;51.070;10.930;2023-02-07T06:19:08;1.17;;;0.50;;
31091;SDS011;17747;51.070;10.930;2023-02-07T06:20:40;0.30;;;0.27;;
31091;SDS011;17747;51.070;10.930;2023-02-07T06:22:12;0.40;;;0.30;;
31091;SDS011;17747;51.070;10.930;2023-02-07T06:23:43;0.30;;;0.30;;
31091;SDS011;17747;51.070;10.930;2023-02-07T06:25:17;1.30;;;0.47;;
31091;SDS011;17747;51.070;10.930;2023-02-07T06:26:49;1.83;;;0.40;;
31091;SDS011;17747;51.070;10.930;2023-02-07T06:28:20;0.30;;;0.27;;
31091;SDS011;17747;51.070;10.930;2023-02-07T06:29:52;2.33;;;0.53;;
31091;SDS011;17747;51.070;10.930;2023-02-07T06:31:24;1.40;;;0.43;;
31091;SDS011;17747;51.070;10.930;2023-02-07T06:32:56;2.27;;;0.50;;
31091;SDS011;17747;51.070;10.930;2023-02-07T06:34:27;0.20;;;0.20;;
31091;SDS011;17747;51.070;10.930;2023-02-07T06:35:59;2.13;;;0.40;;
31091;SDS011;17747;51.070;10.930;2023-02-07T06:37:31;1.23;;;0.37;;
31091;SDS011;17747;51.070;10.930;2023-02-07T06:39:02;4.60;;;0.63;;
31091;SDS011;17747;51.070;10.930;2023-02-07T06:40:35;3.83;;;0.67;;
31091;SDS011;17747;51.070;10.930;2023-02-07T06:42:07;1.10;;;0.30;;
31091;SDS011;17747;51.070;10.930;2023-02-07T06:43:39;2.07;;;0.40;;
31091;SDS011;17747;51.070;10.930;2023-02-07T06:45:11;0.33;;;0.27;;
31091;SDS011;17747;51.070;10.930;2023-02-07T06:46:42;1.50;;;0.40;;
31091;SDS011;17747;51.070;10.930;2023-02-07T06:48:14;0.43;;;0.27;;
31091;SDS011;17747;51.070;10.930;2023-02-07T06:49:46;0.43;;;0.33;;
31091;SDS011;17747;51.070;10.930;2023-02-07T06:51:17;1.30;;;0.30;;
31091;SDS011;17747;51.070;10.930;2023-02-07T06:52:49;0.20;;;0.20;;
31091;SDS011;17747;51.070;10.930;2023-02-07T06:54:20;0.33;;;0.17;;
31091;SDS011;17747;51.070;10.930;2023-02-07T06:55:54;0.43;;;0.30;;
31091;SDS011;17747;51.070;10.930;2023-02-07T06:57:25;1.40;;;0.33;;
31091;SDS011;17747;51.070;10.930;2023-02-07T06:58:57;1.13;;;0.40;;
31091;SDS011;17747;51.070;10.930;2023-02-07T07:00:29;0.27;;;0.20;;
31091;SDS011;17747;51.070;10.930;2023-02-07T07:02:00;2.17;;;0.50;;
31091;SDS011;17747;51.070;10.930;2023-02-07T07:03:32;0.10;;;0.10;;
31091;SDS011;17747;51.070;10.930;2023-02-07T07:05:04;1.37;;;0.47;;
31091;SDS011;17747;51.070;10.930;2023-02-07T07:06:37;0.43;;;0.30;;
31091;SDS011;17747;51.070;10.930;2023-02-07T07:08:08;0.77;;;0.20;;
31091;SDS011;17747;51.070;10.930;2023-02-07T07:09:41;0.37;;;0.30;;
31091;SDS011;17747;51.070;10.930;2023-02-07T07:11:14;0.53;;;0.40;;
31091;SDS011;17747;51.070;10.930;2023-02-07T07:12:45;0.40;;;0.30;;
31091;SDS011;17747;51.070;10.930;2023-02-07T07:14:17;0.93;;;0.20;;
31091;SDS011;17747;51.070;10.930;2023-02-07T07:15:49;3.77;;;0.60;;
31091;SDS011;17747;51.070;10.930;2023-02-07T07:17:21;0.40;;;0.27;;
31091;SDS011;17747;51.070;10.930;2023-02-07T07:18:52;4.33;;;0.70;;
31091;SDS011;17747;51.070;10.930;2023-02-07T07:20:24;1.40;;;0.43;;
31091;SDS011;17747;51.070;10.930;2023-02-07T07:21:55;0.87;;;0.33;;
31091;SDS011;17747;51.070;10.930;2023-02-07T07:23:28;0.40;;;0.40;;
31091;SDS011;17747;51.070;10.930;2023-02-07T07:24:59;2.00;;;0.50;;
31091;SDS011;17747;51.070;10.930;2023-02-07T07:26:32;1.27;;;0.50;;
31091;SDS011;17747;51.070;10.930;2023-02-07T07:28:04;0.50;;;0.43;;
31091;SDS011;17747;51.070;10.930;2023-02-07T07:29:36;0.50;;;0.40;;
31091;SDS011;17747;51.070;10.930;2023-02-07T07:31:07;7.00;;;1.03;;
31091;SDS011;17747;51.070;10.930;2023-02-07T07:32:39;0.40;;;0.40;;
31091;SDS011;17747;51.070;10.930;2023-02-07T07:34:11;0.35;;;0.35;;
31091;SDS011;17747;51.070;10.930;2023-02-07T07:35:42;0.30;;;0.30;;
31091;SDS011;17747;51.070;10.930;2023-02-07T07:37:14;2.08;;;0.75;;
31091;SDS011;17747;51.070;10.930;2023-02-07T07:38:46;1.20;;;0.70;;
31091;SDS011;17747;51.070;10.930;2023-02-07T07:40:17;0.50;;;0.50;;
31091;SDS011;17747;51.070;10.930;2023-02-07T07:41:51;0.60;;;0.60;;
31091;SDS011;17747;51.070;10.930;2023-02-07T07:43:23;0.50;;;0.50;;
31091;SDS011;17747;51.070;10.930;2023-02-07T07:44:54;1.97;;;0.77;;
31091;SDS011;17747;51.070;10.930;2023-02-07T07:46:26;7.50;;;1.63;;
31091;SDS011;17747;51.070;10.930;2023-02-07T07:47:58;2.37;;;2.03;;
31091;SDS011;17747;51.070;10.930;2023-02-07T07:49:30;0.77;;;0.77;;
31091;SDS011;17747;51.070;10.930;2023-02-07T07:51:02;4.90;;;1.50;;
31091;SDS011;17747;51.070;10.930;2023-02-07T07:52:33;1.30;;;1.27;;
31091;SDS011;17747;51.070;10.930;2023-02-07T07:54:05;1.77;;;1.67;;
31091;SDS011;17747;51.070;10.930;2023-02-07T07:55:37;2.45;;;1.58;;
31091;SDS011;17747;51.070;10.930;2023-02-07T07:57:10;2.05;;;1.42;;
31091;SDS011;17747;51.070;10.930;2023-02-07T07:58:41;9.45;;;2.10;;
31091;SDS011;17747;51.070;10.930;2023-02-07T08:00:13;1.33;;;1.17;;
31091;SDS011;17747;51.070;10.930;2023-02-07T08:01:45;1.10;;;1.10;;
31091;SDS011;17747;51.070;10.930;2023-02-07T08:03:17;4.13;;;1.48;;
31091;SDS011;17747;51.070;10.930;2023-02-07T08:04:49;1.17;;;1.08;;
31091;SDS011;17747;51.070;10.930;2023-02-07T08:06:21;1.65;;;1.52;;
31091;SDS011;17747;51.070;10.930;2023-02-07T08:07:53;12.52;;;2.88;;
31091;SDS011;17747;51.070;10.930;2023-02-07T08:09:24;4.73;;;4.30;;
31091;SDS011;17747;51.070;10.930;2023-02-07T08:10:59;3.42;;;3.13;;
31091;SDS011;17747;51.070;10.930;2023-02-07T08:12:33;1.90;;;1.77;;
31091;SDS011;17747;51.070;10.930;2023-02-07T08:14:04;3.05;;;1.48;;
31091;SDS011;17747;51.070;10.930;2023-02-07T08:15:36;2.78;;;2.20;;
31091;SDS011;17747;51.070;10.930;2023-02-07T08:17:08;6.18;;;4.28;;
31091;SDS011;17747;51.070;10.930;2023-02-07T08:18:39;2.83;;;2.63;;
31091;SDS011;17747;51.070;10.930;2023-02-07T08:20:11;3.67;;;1.98;;
31091;SDS011;17747;51.070;10.930;2023-02-07T08:21:43;1.33;;;1.23;;
31091;SDS011;17747;51.070;10.930;2023-02-07T08:23:15;3.28;;;1.33;;
31091;SDS011;17747;51.070;10.930;2023-02-07T08:24:47;1.40;;;1.30;;
31091;SDS011;17747;51.070;10.930;2023-02-07T08:26:18;1.45;;;1.35;;
31091;SDS011;17747;51.070;10.930;2023-02-07T08:27:52;1.15;;;1.15;;
31091;SDS011;17747;51.070;10.930;2023-02-07T08:29:24;2.35;;;2.17;;
31091;SDS011;17747;51.070;10.930;2023-02-07T08:30:58;2.03;;;1.38;;
31091;SDS011;17747;51.070;10.930;2023-02-07T08:32:30;0.98;;;0.98;;
31091;SDS011;17747;51.070;10.930;2023-02-07T08:34:02;1.80;;;1.00;;
31091;SDS011;17747;51.070;10.930;2023-02-07T08:35:33;0.80;;;0.80;;
31091;SDS011;17747;51.070;10.930;2023-02-07T08:37:07;1.65;;;0.90;;
31091;SDS011;17747;51.070;10.930;2023-02-07T08:38:39;2.25;;;0.90;;
31091;SDS011;17747;51.070;10.930;2023-02-07T08:40:11;13.10;;;1.77;;
31091;SDS011;17747;51.070;10.930;2023-02-07T08:41:43;0.73;;;0.73;;
31091;SDS011;17747;51.070;10.930;2023-02-07T08:43:16;0.50;;;0.50;;
31091;SDS011;17747;51.070;10.930;2023-02-07T08:44:47;1.00;;;0.60;;
31091;SDS011;17747;51.070;10.930;2023-02-07T08:46:19;8.00;;;1.30;;
31091;SDS011;17747;51.070;10.930;2023-02-07T08:47:52;0.60;;;0.60;;
31091;SDS011;17747;51.070;10.930;2023-02-07T08:49:23;0.68;;;0.68;;
31091;SDS011;17747;51.070;10.930;2023-02-07T08:50:55;1.10;;;0.77;;
31091;SDS011;17747;51.070;10.930;2023-02-07T08:52:26;0.70;;;0.70;;
31091;SDS011;17747;51.070;10.930;2023-02-07T08:53:58;0.50;;;0.50;;
31091;SDS011;17747;51.070;10.930;2023-02-07T08:55:33;1.00;;;0.47;;
31091;SDS011;17747;51.070;10.930;2023-02-07T08:57:04;0.50;;;0.50;;
31091;SDS011;17747;51.070;10.930;2023-02-07T08:58:38;0.60;;;0.60;;
31091;SDS011;17747;51.070;10.930;2023-02-07T09:00:10;2.45;;;0.80;;
31091;SDS011;17747;51.070;10.930;2023-02-07T09:01:42;6.40;;;1.00;;
31091;SDS011;17747;51.070;10.930;2023-02-07T09:03:14;0.60;;;0.60;;
31091;SDS011;17747;51.070;10.930;2023-02-07T09:04:45;16.95;;;1.92;;
31091;SDS011;17747;51.070;10.930;2023-02-07T09:06:17;8.63;;;1.40;;
31091;SDS011;17747;51.070;10.930;2023-02-07T09:07:49;6.20;;;5.28;;
31091;SDS011;17747;51.070;10.930;2023-02-07T09:09:20;3.65;;;1.42;;
31091;SDS011;17747;51.070;10.930;2023-02-07T09:10:54;7.97;;;2.53;;
31091;SDS011;17747;51.070;10.930;2023-02-07T09:12:25;3.63;;;1.20;;
31091;SDS011;17747;51.070;10.930;2023-02-07T09:13:58;1.00;;;1.00;;
31091;SDS011;17747;51.070;10.930;2023-02-07T09:15:30;2.65;;;1.15;;
31091;SDS011;17747;51.070;10.930;2023-02-07T09:17:02;4.78;;;1.40;;
31091;SDS011;17747;51.070;10.930;2023-02-07T09:18:34;6.63;;;3.13;;
31091;SDS011;17747;51.070;10.930;2023-02-07T09:20:06;15.73;;;6.55;;